sensor_id;sensor_type;location;lat;lon;timestamp;P1;P2;P0
81998;PMS5003;71598;46.516;-122.928;2023-11-21T00:00:51;113;107;
81998;PMS5003;71598;46.516;-122.928;2023-11-21T00:03:17;102;98;
81998;PMS5003;71598;46.516;-122.928;2023-11-21T00:05:42;107;103;
81998;PMS5003;71598;46.516;-122.928;2023-11-21T00:08:08;104;102;
81998;PMS5003;71598;46.516;-122.928;2023-11-21T00:10:33;111;108;
81998;PMS5003;71598;46.516;-122.928;2023-11-21T00:12:58;116;112;
81998;PMS5003;71598;46.516;-122.928;2023-11-21T00:15:24;115;111;
81998;PMS5003;71598;46.516;-122.928;2023-11-21T00:17:50;123;119;
81998;PMS5003;71598;46.516;-122.928;2023-11-21T00:20:16;123;117;
81998;PMS5003;71598;46.516;-122.928;2023-11-21T00:22:42;121;116;
81998;PMS5003;71598;46.516;-122.928;2023-11-21T00:25:07;118;113;
81998;PMS5003;71598;46.516;-122.928;2023-11-21T00:27:33;119;118;
81998;PMS5003;71598;46.516;-122.928;2023-11-21T00:29:58;114;111;
81998;PMS5003;71598;46.516;-122.928;2023-11-21T00:32:24;121;116;
81998;PMS5003;71598;46.516;-122.928;2023-11-21T00:34:49;114;111;
81998;PMS5003;71598;46.516;-122.928;2023-11-21T00:37:14;120;114;
81998;PMS5003;71598;46.516;-122.928;2023-11-21T00:39:40;120;113;
81998;PMS5003;71598;46.516;-122.928;2023-11-21T00:42:07;125;120;
81998;PMS5003;71598;46.516;-122.928;2023-11-21T00:44:30;132;123;
81998;PMS5003;71598;46.516;-122.928;2023-11-21T00:46:56;125;121;
81998;PMS5003;71598;46.516;-122.928;2023-11-21T00:49:21;134;129;
81998;PMS5003;71598;46.516;-122.928;2023-11-21T00:51:46;120;114;
81998;PMS5003;71598;46.516;-122.928;2023-11-21T00:54:12;125;120;
81998;PMS5003;71598;46.516;-122.928;2023-11-21T00:56:37;128;124;
81998;PMS5003;71598;46.516;-122.928;2023-11-21T00:59:02;125;121;
81998;PMS5003;71598;46.516;-122.928;2023-11-21T01:01:27;116;114;
81998;PMS5003;71598;46.516;-122.928;2023-11-21T01:03:53;134;127;
81998;PMS5003;71598;46.516;-122.928;2023-11-21T01:06:18;128;124;
81998;PMS5003;71598;46.516;-122.928;2023-11-21T01:08:44;128;122;
81998;PMS5003;71598;46.516;-122.928;2023-11-21T01:11:08;118;117;
81998;PMS5003;71598;46.516;-122.928;2023-11-21T01:13:34;136;125;
81998;PMS5003;71598;46.516;-122.928;2023-11-21T01:15:59;122;118;
81998;PMS5003;71598;46.516;-122.928;2023-11-21T01:18:25;132;128;
81998;PMS5003;71598;46.516;-122.928;2023-11-21T01:20:50;136;129;
81998;PMS5003;71598;46.516;-122.928;2023-11-21T01:23:15;131;129;
81998;PMS5003;71598;46.516;-122.928;2023-11-21T01:25:40;138;131;
81998;PMS5003;71598;46.516;-122.928;2023-11-21T01:28:06;136;132;
81998;PMS5003;71598;46.516;-122.928;2023-11-21T01:30:32;133;125;
81998;PMS5003;71598;46.516;-122.928;2023-11-21T01:32:57;139;132;
81998;PMS5003;71598;46.516;-122.928;2023-11-21T01:35:22;135;129;
81998;PMS5003;71598;46.516;-122.928;2023-11-21T01:37:47;136;130;
81998;PMS5003;71598;46.516;-122.928;2023-11-21T01:40:12;139;134;
81998;PMS5003;71598;46.516;-122.928;2023-11-21T01:42:38;134;125;
81998;PMS5003;71598;46.516;-122.928;2023-11-21T01:45:04;133;131;
81998;PMS5003;71598;46.516;-122.928;2023-11-21T01:47:30;144;138;
81998;PMS5003;71598;46.516;-122.928;2023-11-21T01:49:55;132;129;
81998;PMS5003;71598;46.516;-122.928;2023-11-21T01:52:20;135;129;
81998;PMS5003;71598;46.516;-122.928;2023-11-21T01:54:46;131;123;
81998;PMS5003;71598;46.516;-122.928;2023-11-21T01:57:12;131;125;
81998;PMS5003;71598;46.516;-122.928;2023-11-21T01:59:37;134;125;
81998;PMS5003;71598;46.516;-122.928;2023-11-21T02:02:03;140;134;
81998;PMS5003;71598;46.516;-122.928;2023-11-21T02:04:28;137;129;
81998;PMS5003;71598;46.516;-122.928;2023-11-21T02:06:54;136;134;
81998;PMS5003;71598;46.516;-122.928;2023-11-21T02:09:23;139;130;
81998;PMS5003;71598;46.516;-122.928;2023-11-21T02:11:44;149;142;
81998;PMS5003;71598;46.516;-122.928;2023-11-21T02:14:10;146;138;
81998;PMS5003;71598;46.516;-122.928;2023-11-21T02:16:36;145;140;
81998;PMS5003;71598;46.516;-122.928;2023-11-21T02:19:02;146;139;
81998;PMS5003;71598;46.516;-122.928;2023-11-21T02:21:27;138;132;
81998;PMS5003;71598;46.516;-122.928;2023-11-21T02:23:53;137;135;
81998;PMS5003;71598;46.516;-122.928;2023-11-21T02:26:18;137;131;
81998;PMS5003;71598;46.516;-122.928;2023-11-21T02:28:44;143;140;
81998;PMS5003;71598;46.516;-122.928;2023-11-21T02:31:11;151;142;
81998;PMS5003;71598;46.516;-122.928;2023-11-21T02:33:35;142;138;
81998;PMS5003;71598;46.516;-122.928;2023-11-21T02:36:01;141;136;
81998;PMS5003;71598;46.516;-122.928;2023-11-21T02:38:25;141;136;
81998;PMS5003;71598;46.516;-122.928;2023-11-21T02:40:51;105;99;
81998;PMS5003;71598;46.516;-122.928;2023-11-21T02:43:16;120;116;
81998;PMS5003;71598;46.516;-122.928;2023-11-21T02:45:42;117;115;
81998;PMS5003;71598;46.516;-122.928;2023-11-21T02:48:08;130;125;
81998;PMS5003;71598;46.516;-122.928;2023-11-21T02:50:33;141;137;
81998;PMS5003;71598;46.516;-122.928;2023-11-21T02:52:59;132;127;
81998;PMS5003;71598;46.516;-122.928;2023-11-21T02:55:24;130;122;
81998;PMS5003;71598;46.516;-122.928;2023-11-21T02:57:49;124;121;
81998;PMS5003;71598;46.516;-122.928;2023-11-21T03:00:16;136;128;
81998;PMS5003;71598;46.516;-122.928;2023-11-21T03:02:41;141;135;
81998;PMS5003;71598;46.516;-122.928;2023-11-21T03:05:06;134;128;
81998;PMS5003;71598;46.516;-122.928;2023-11-21T03:07:31;136;131;
81998;PMS5003;71598;46.516;-122.928;2023-11-21T03:09:56;144;135;
81998;PMS5003;71598;46.516;-122.928;2023-11-21T03:12:21;141;138;
81998;PMS5003;71598;46.516;-122.928;2023-11-21T03:14:47;166;161;
81998;PMS5003;71598;46.516;-122.928;2023-11-21T03:17:13;168;163;
81998;PMS5003;71598;46.516;-122.928;2023-11-21T03:19:38;200;191;
81998;PMS5003;71598;46.516;-122.928;2023-11-21T03:22:04;196;185;
81998;PMS5003;71598;46.516;-122.928;2023-11-21T03:24:31;181;167;
81998;PMS5003;71598;46.516;-122.928;2023-11-21T03:26:55;166;161;
81998;PMS5003;71598;46.516;-122.928;2023-11-21T03:29:21;177;168;
81998;PMS5003;71598;46.516;-122.928;2023-11-21T03:31:46;167;160;
81998;PMS5003;71598;46.516;-122.928;2023-11-21T03:34:14;167;157;
81998;PMS5003;71598;46.516;-122.928;2023-11-21T03:36:36;161;152;
81998;PMS5003;71598;46.516;-122.928;2023-11-21T03:39:02;157;154;
81998;PMS5003;71598;46.516;-122.928;2023-11-21T03:41:27;169;156;
81998;PMS5003;71598;46.516;-122.928;2023-11-21T03:43:53;148;145;
81998;PMS5003;71598;46.516;-122.928;2023-11-21T03:46:18;159;150;
81998;PMS5003;71598;46.516;-122.928;2023-11-21T03:48:44;144;140;
81998;PMS5003;71598;46.516;-122.928;2023-11-21T03:51:08;150;142;
81998;PMS5003;71598;46.516;-122.928;2023-11-21T03:53:33;142;136;
81998;PMS5003;71598;46.516;-122.928;2023-11-21T03:56:02;150;141;
81998;PMS5003;71598;46.516;-122.928;2023-11-21T03:58:24;148;138;
81998;PMS5003;71598;46.516;-122.928;2023-11-21T04:00:49;145;144;
81998;PMS5003;71598;46.516;-122.928;2023-11-21T04:03:15;157;149;
81998;PMS5003;71598;46.516;-122.928;2023-11-21T04:05:40;139;131;
81998;PMS5003;71598;46.516;-122.928;2023-11-21T04:08:06;136;133;
81998;PMS5003;71598;46.516;-122.928;2023-11-21T04:10:31;141;136;
81998;PMS5003;71598;46.516;-122.928;2023-11-21T04:12:57;133;128;
81998;PMS5003;71598;46.516;-122.928;2023-11-21T04:15:22;135;131;
81998;PMS5003;71598;46.516;-122.928;2023-11-21T04:17:47;118;114;
81998;PMS5003;71598;46.516;-122.928;2023-11-21T04:20:13;136;132;
81998;PMS5003;71598;46.516;-122.928;2023-11-21T04:22:39;127;117;
81998;PMS5003;71598;46.516;-122.928;2023-11-21T04:25:04;119;115;
81998;PMS5003;71598;46.516;-122.928;2023-11-21T04:27:30;121;119;
81998;PMS5003;71598;46.516;-122.928;2023-11-21T04:29:56;125;119;
81998;PMS5003;71598;46.516;-122.928;2023-11-21T04:32:21;119;117;
81998;PMS5003;71598;46.516;-122.928;2023-11-21T04:34:47;116;112;
81998;PMS5003;71598;46.516;-122.928;2023-11-21T04:37:12;124;120;
81998;PMS5003;71598;46.516;-122.928;2023-11-21T04:39:38;124;121;
81998;PMS5003;71598;46.516;-122.928;2023-11-21T04:42:04;115;111;
81998;PMS5003;71598;46.516;-122.928;2023-11-21T04:44:29;119;114;
81998;PMS5003;71598;46.516;-122.928;2023-11-21T04:46:54;119;112;
81998;PMS5003;71598;46.516;-122.928;2023-11-21T04:49:21;119;116;
81998;PMS5003;71598;46.516;-122.928;2023-11-21T04:51:45;119;116;
81998;PMS5003;71598;46.516;-122.928;2023-11-21T04:54:10;112;111;
81998;PMS5003;71598;46.516;-122.928;2023-11-21T04:56:35;118;114;
81998;PMS5003;71598;46.516;-122.928;2023-11-21T04:59:01;113;111;
81998;PMS5003;71598;46.516;-122.928;2023-11-21T05:01:26;121;112;
81998;PMS5003;71598;46.516;-122.928;2023-11-21T05:03:51;120;116;
81998;PMS5003;71598;46.516;-122.928;2023-11-21T05:06:16;124;120;
81998;PMS5003;71598;46.516;-122.928;2023-11-21T05:08:42;114;109;
81998;PMS5003;71598;46.516;-122.928;2023-11-21T05:11:07;113;109;
81998;PMS5003;71598;46.516;-122.928;2023-11-21T05:13:34;117;111;
81998;PMS5003;71598;46.516;-122.928;2023-11-21T05:15:59;116;108;
81998;PMS5003;71598;46.516;-122.928;2023-11-21T05:18:25;115;107;
81998;PMS5003;71598;46.516;-122.928;2023-11-21T05:20:50;112;108;
81998;PMS5003;71598;46.516;-122.928;2023-11-21T05:23:16;117;114;
81998;PMS5003;71598;46.516;-122.928;2023-11-21T05:25:41;114;110;
81998;PMS5003;71598;46.516;-122.928;2023-11-21T05:28:07;108;104;
81998;PMS5003;71598;46.516;-122.928;2023-11-21T05:30:34;113;107;
81998;PMS5003;71598;46.516;-122.928;2023-11-21T05:32:58;111;106;
81998;PMS5003;71598;46.516;-122.928;2023-11-21T05:35:23;113;110;
81998;PMS5003;71598;46.516;-122.928;2023-11-21T05:37:49;121;119;
81998;PMS5003;71598;46.516;-122.928;2023-11-21T05:40:15;110;106;
81998;PMS5003;71598;46.516;-122.928;2023-11-21T05:42:40;115;112;
81998;PMS5003;71598;46.516;-122.928;2023-11-21T05:45:07;117;112;
81998;PMS5003;71598;46.516;-122.928;2023-11-21T05:47:31;119;114;
81998;PMS5003;71598;46.516;-122.928;2023-11-21T05:49:57;111;108;
81998;PMS5003;71598;46.516;-122.928;2023-11-21T05:52:21;117;112;
81998;PMS5003;71598;46.516;-122.928;2023-11-21T05:54:47;114;108;
81998;PMS5003;71598;46.516;-122.928;2023-11-21T05:57:13;111;108;
81998;PMS5003;71598;46.516;-122.928;2023-11-21T05:59:38;113;112;
81998;PMS5003;71598;46.516;-122.928;2023-11-21T06:02:04;117;113;
81998;PMS5003;71598;46.516;-122.928;2023-11-21T06:04:29;117;111;
81998;PMS5003;71598;46.516;-122.928;2023-11-21T06:06:54;121;115;
81998;PMS5003;71598;46.516;-122.928;2023-11-21T06:09:19;121;111;
81998;PMS5003;71598;46.516;-122.928;2023-11-21T06:11:45;121;116;
81998;PMS5003;71598;46.516;-122.928;2023-11-21T06:14:10;119;116;
81998;PMS5003;71598;46.516;-122.928;2023-11-21T06:16:36;123;116;
81998;PMS5003;71598;46.516;-122.928;2023-11-21T06:19:01;113;108;
81998;PMS5003;71598;46.516;-122.928;2023-11-21T06:21:26;114;109;
81998;PMS5003;71598;46.516;-122.928;2023-11-21T06:23:52;110;108;
81998;PMS5003;71598;46.516;-122.928;2023-11-21T06:26:17;118;109;
81998;PMS5003;71598;46.516;-122.928;2023-11-21T06:28:43;120;114;
81998;PMS5003;71598;46.516;-122.928;2023-11-21T06:31:08;112;108;
81998;PMS5003;71598;46.516;-122.928;2023-11-21T06:33:35;111;108;
81998;PMS5003;71598;46.516;-122.928;2023-11-21T06:36:00;112;102;
81998;PMS5003;71598;46.516;-122.928;2023-11-21T06:38:26;110;103;
81998;PMS5003;71598;46.516;-122.928;2023-11-21T06:40:51;111;108;
81998;PMS5003;71598;46.516;-122.928;2023-11-21T06:43:17;107;102;
81998;PMS5003;71598;46.516;-122.928;2023-11-21T06:45:42;119;113;
81998;PMS5003;71598;46.516;-122.928;2023-11-21T06:48:11;108;106;
81998;PMS5003;71598;46.516;-122.928;2023-11-21T06:50:48;108;105;
81998;PMS5003;71598;46.516;-122.928;2023-11-21T06:53:07;108;104;
81998;PMS5003;71598;46.516;-122.928;2023-11-21T06:55:32;113;108;
81998;PMS5003;71598;46.516;-122.928;2023-11-21T06:57:57;114;110;
81998;PMS5003;71598;46.516;-122.928;2023-11-21T07:00:23;115;110;
81998;PMS5003;71598;46.516;-122.928;2023-11-21T07:02:49;110;108;
81998;PMS5003;71598;46.516;-122.928;2023-11-21T07:05:14;110;106;
81998;PMS5003;71598;46.516;-122.928;2023-11-21T07:07:40;113;107;
81998;PMS5003;71598;46.516;-122.928;2023-11-21T07:10:05;108;98;
81998;PMS5003;71598;46.516;-122.928;2023-11-21T07:12:38;105;103;
81998;PMS5003;71598;46.516;-122.928;2023-11-21T07:15:03;113;107;
81998;PMS5003;71598;46.516;-122.928;2023-11-21T07:17:28;115;107;
81998;PMS5003;71598;46.516;-122.928;2023-11-21T07:19:53;111;108;
81998;PMS5003;71598;46.516;-122.928;2023-11-21T07:22:19;109;106;
81998;PMS5003;71598;46.516;-122.928;2023-11-21T07:24:46;108;106;
81998;PMS5003;71598;46.516;-122.928;2023-11-21T07:27:09;113;109;
81998;PMS5003;71598;46.516;-122.928;2023-11-21T07:29:34;108;104;
81998;PMS5003;71598;46.516;-122.928;2023-11-21T07:32:00;112;106;
81998;PMS5003;71598;46.516;-122.928;2023-11-21T07:34:26;102;100;
81998;PMS5003;71598;46.516;-122.928;2023-11-21T07:36:51;108;105;
81998;PMS5003;71598;46.516;-122.928;2023-11-21T07:39:17;113;108;
81998;PMS5003;71598;46.516;-122.928;2023-11-21T07:41:43;116;106;
81998;PMS5003;71598;46.516;-122.928;2023-11-21T07:44:08;106;103;
81998;PMS5003;71598;46.516;-122.928;2023-11-21T07:46:34;121;114;
81998;PMS5003;71598;46.516;-122.928;2023-11-21T07:48:59;112;109;
81998;PMS5003;71598;46.516;-122.928;2023-11-21T07:51:25;121;113;
81998;PMS5003;71598;46.516;-122.928;2023-11-21T07:53:49;113;110;
81998;PMS5003;71598;46.516;-122.928;2023-11-21T07:56:14;122;116;
81998;PMS5003;71598;46.516;-122.928;2023-11-21T07:58:40;116;113;
81998;PMS5003;71598;46.516;-122.928;2023-11-21T08:01:06;125;119;
81998;PMS5003;71598;46.516;-122.928;2023-11-21T08:03:32;134;126;
81998;PMS5003;71598;46.516;-122.928;2023-11-21T08:05:58;117;114;
81998;PMS5003;71598;46.516;-122.928;2023-11-21T08:08:23;121;118;
81998;PMS5003;71598;46.516;-122.928;2023-11-21T08:10:49;132;123;
81998;PMS5003;71598;46.516;-122.928;2023-11-21T08:13:15;133;128;
81998;PMS5003;71598;46.516;-122.928;2023-11-21T08:15:40;142;136;
81998;PMS5003;71598;46.516;-122.928;2023-11-21T08:18:05;137;126;
81998;PMS5003;71598;46.516;-122.928;2023-11-21T08:20:32;127;122;
81998;PMS5003;71598;46.516;-122.928;2023-11-21T08:22:57;143;130;
81998;PMS5003;71598;46.516;-122.928;2023-11-21T08:25:22;147;133;
81998;PMS5003;71598;46.516;-122.928;2023-11-21T08:27:48;145;136;
81998;PMS5003;71598;46.516;-122.928;2023-11-21T08:30:13;140;132;
81998;PMS5003;71598;46.516;-122.928;2023-11-21T08:32:38;136;129;
81998;PMS5003;71598;46.516;-122.928;2023-11-21T08:35:04;135;131;
81998;PMS5003;71598;46.516;-122.928;2023-11-21T08:37:30;143;140;
81998;PMS5003;71598;46.516;-122.928;2023-11-21T08:39:57;149;138;
81998;PMS5003;71598;46.516;-122.928;2023-11-21T08:42:21;152;145;
81998;PMS5003;71598;46.516;-122.928;2023-11-21T08:44:46;151;145;
81998;PMS5003;71598;46.516;-122.928;2023-11-21T08:47:11;151;147;
81998;PMS5003;71598;46.516;-122.928;2023-11-21T08:49:37;169;155;
81998;PMS5003;71598;46.516;-122.928;2023-11-21T08:52:02;152;147;
81998;PMS5003;71598;46.516;-122.928;2023-11-21T08:54:27;171;158;
81998;PMS5003;71598;46.516;-122.928;2023-11-21T08:56:52;172;161;
81998;PMS5003;71598;46.516;-122.928;2023-11-21T08:59:17;162;154;
81998;PMS5003;71598;46.516;-122.928;2023-11-21T09:01:44;184;169;
81998;PMS5003;71598;46.516;-122.928;2023-11-21T09:04:08;172;165;
81998;PMS5003;71598;46.516;-122.928;2023-11-21T09:06:34;168;162;
81998;PMS5003;71598;46.516;-122.928;2023-11-21T09:08:59;161;154;
81998;PMS5003;71598;46.516;-122.928;2023-11-21T09:11:25;177;167;
81998;PMS5003;71598;46.516;-122.928;2023-11-21T09:13:51;168;162;
81998;PMS5003;71598;46.516;-122.928;2023-11-21T09:16:16;178;163;
81998;PMS5003;71598;46.516;-122.928;2023-11-21T09:18:42;179;165;
81998;PMS5003;71598;46.516;-122.928;2023-11-21T09:21:07;183;172;
81998;PMS5003;71598;46.516;-122.928;2023-11-21T09:23:33;202;191;
81998;PMS5003;71598;46.516;-122.928;2023-11-21T09:25:58;202;195;
81998;PMS5003;71598;46.516;-122.928;2023-11-21T09:28:23;201;189;
81998;PMS5003;71598;46.516;-122.928;2023-11-21T09:30:49;206;197;
81998;PMS5003;71598;46.516;-122.928;2023-11-21T09:33:15;219;200;
81998;PMS5003;71598;46.516;-122.928;2023-11-21T09:35:40;198;188;
81998;PMS5003;71598;46.516;-122.928;2023-11-21T09:38:06;200;197;
81998;PMS5003;71598;46.516;-122.928;2023-11-21T09:40:31;197;185;
81998;PMS5003;71598;46.516;-122.928;2023-11-21T09:42:57;212;194;
81998;PMS5003;71598;46.516;-122.928;2023-11-21T09:45:25;207;190;
81998;PMS5003;71598;46.516;-122.928;2023-11-21T09:47:48;207;187;
81998;PMS5003;71598;46.516;-122.928;2023-11-21T09:50:15;198;188;
81998;PMS5003;71598;46.516;-122.928;2023-11-21T09:52:41;207;186;
81998;PMS5003;71598;46.516;-122.928;2023-11-21T09:55:06;211;195;
81998;PMS5003;71598;46.516;-122.928;2023-11-21T09:57:30;214;203;
81998;PMS5003;71598;46.516;-122.928;2023-11-21T09:59:55;196;184;
81998;PMS5003;71598;46.516;-122.928;2023-11-21T10:02:20;206;189;
81998;PMS5003;71598;46.516;-122.928;2023-11-21T10:04:45;218;201;
81998;PMS5003;71598;46.516;-122.928;2023-11-21T10:07:11;214;202;
81998;PMS5003;71598;46.516;-122.928;2023-11-21T10:09:37;219;212;
81998;PMS5003;71598;46.516;-122.928;2023-11-21T10:12:02;208;197;
81998;PMS5003;71598;46.516;-122.928;2023-11-21T10:14:28;216;195;
81998;PMS5003;71598;46.516;-122.928;2023-11-21T10:16:53;230;213;
81998;PMS5003;71598;46.516;-122.928;2023-11-21T10:19:18;213;201;
81998;PMS5003;71598;46.516;-122.928;2023-11-21T10:21:44;220;205;
81998;PMS5003;71598;46.516;-122.928;2023-11-21T10:24:09;216;194;
81998;PMS5003;71598;46.516;-122.928;2023-11-21T10:26:35;229;208;
81998;PMS5003;71598;46.516;-122.928;2023-11-21T10:29:01;206;195;
81998;PMS5003;71598;46.516;-122.928;2023-11-21T10:31:27;218;205;
81998;PMS5003;71598;46.516;-122.928;2023-11-21T10:33:51;218;203;
81998;PMS5003;71598;46.516;-122.928;2023-11-21T10:36:23;215;204;
81998;PMS5003;71598;46.516;-122.928;2023-11-21T10:38:42;208;199;
81998;PMS5003;71598;46.516;-122.928;2023-11-21T10:41:10;216;205;
81998;PMS5003;71598;46.516;-122.928;2023-11-21T10:43:33;219;206;
81998;PMS5003;71598;46.516;-122.928;2023-11-21T10:45:58;208;199;
81998;PMS5003;71598;46.516;-122.928;2023-11-21T10:48:24;211;197;
81998;PMS5003;71598;46.516;-122.928;2023-11-21T10:50:49;191;188;
81998;PMS5003;71598;46.516;-122.928;2023-11-21T10:53:15;222;210;
81998;PMS5003;71598;46.516;-122.928;2023-11-21T10:55:41;220;208;
81998;PMS5003;71598;46.516;-122.928;2023-11-21T10:58:06;213;202;
81998;PMS5003;71598;46.516;-122.928;2023-11-21T11:00:32;222;205;
81998;PMS5003;71598;46.516;-122.928;2023-11-21T11:02:57;212;201;
81998;PMS5003;71598;46.516;-122.928;2023-11-21T11:05:23;221;200;
81998;PMS5003;71598;46.516;-122.928;2023-11-21T11:07:48;207;192;
81998;PMS5003;71598;46.516;-122.928;2023-11-21T11:10:13;205;196;
81998;PMS5003;71598;46.516;-122.928;2023-11-21T11:12:39;204;194;
81998;PMS5003;71598;46.516;-122.928;2023-11-21T11:15:04;215;196;
81998;PMS5003;71598;46.516;-122.928;2023-11-21T11:17:44;200;194;
81998;PMS5003;71598;46.516;-122.928;2023-11-21T11:19:55;199;187;
81998;PMS5003;71598;46.516;-122.928;2023-11-21T11:22:24;204;190;
81998;PMS5003;71598;46.516;-122.928;2023-11-21T11:24:52;216;202;
81998;PMS5003;71598;46.516;-122.928;2023-11-21T11:27:15;208;198;
81998;PMS5003;71598;46.516;-122.928;2023-11-21T11:29:39;201;185;
81998;PMS5003;71598;46.516;-122.928;2023-11-21T11:32:05;195;182;
81998;PMS5003;71598;46.516;-122.928;2023-11-21T11:34:29;194;179;
81998;PMS5003;71598;46.516;-122.928;2023-11-21T11:36:54;202;183;
81998;PMS5003;71598;46.516;-122.928;2023-11-21T11:39:27;192;183;
81998;PMS5003;71598;46.516;-122.928;2023-11-21T11:41:44;190;179;
81998;PMS5003;71598;46.516;-122.928;2023-11-21T11:44:45;187;176;
81998;PMS5003;71598;46.516;-122.928;2023-11-21T11:46:42;184;169;
81998;PMS5003;71598;46.516;-122.928;2023-11-21T11:49:02;183;177;
81998;PMS5003;71598;46.516;-122.928;2023-11-21T11:51:25;187;178;
81998;PMS5003;71598;46.516;-122.928;2023-11-21T11:53:51;202;178;
81998;PMS5003;71598;46.516;-122.928;2023-11-21T11:56:22;182;174;
81998;PMS5003;71598;46.516;-122.928;2023-11-21T11:58:41;187;177;
81998;PMS5003;71598;46.516;-122.928;2023-11-21T12:01:07;180;167;
81998;PMS5003;71598;46.516;-122.928;2023-11-21T12:03:34;184;172;
81998;PMS5003;71598;46.516;-122.928;2023-11-21T12:05:58;181;170;
81998;PMS5003;71598;46.516;-122.928;2023-11-21T12:08:23;180;172;
81998;PMS5003;71598;46.516;-122.928;2023-11-21T12:10:49;172;164;
81998;PMS5003;71598;46.516;-122.928;2023-11-21T12:13:15;170;159;
81998;PMS5003;71598;46.516;-122.928;2023-11-21T12:15:40;173;161;
81998;PMS5003;71598;46.516;-122.928;2023-11-21T12:18:06;178;167;
81998;PMS5003;71598;46.516;-122.928;2023-11-21T12:20:31;149;140;
81998;PMS5003;71598;46.516;-122.928;2023-11-21T12:22:57;150;144;
81998;PMS5003;71598;46.516;-122.928;2023-11-21T12:25:22;154;150;
81998;PMS5003;71598;46.516;-122.928;2023-11-21T12:27:48;163;156;
81998;PMS5003;71598;46.516;-122.928;2023-11-21T12:30:13;147;144;
81998;PMS5003;71598;46.516;-122.928;2023-11-21T12:32:39;150;144;
81998;PMS5003;71598;46.516;-122.928;2023-11-21T12:35:04;152;146;
81998;PMS5003;71598;46.516;-122.928;2023-11-21T12:37:30;152;142;
81998;PMS5003;71598;46.516;-122.928;2023-11-21T12:39:55;159;142;
81998;PMS5003;71598;46.516;-122.928;2023-11-21T12:42:21;149;141;
81998;PMS5003;71598;46.516;-122.928;2023-11-21T12:44:46;153;143;
81998;PMS5003;71598;46.516;-122.928;2023-11-21T12:47:15;149;139;
81998;PMS5003;71598;46.516;-122.928;2023-11-21T12:49:37;149;139;
81998;PMS5003;71598;46.516;-122.928;2023-11-21T12:52:03;145;139;
81998;PMS5003;71598;46.516;-122.928;2023-11-21T12:54:28;148;141;
81998;PMS5003;71598;46.516;-122.928;2023-11-21T12:56:53;146;140;
81998;PMS5003;71598;46.516;-122.928;2023-11-21T12:59:20;140;131;
81998;PMS5003;71598;46.516;-122.928;2023-11-21T13:01:44;141;134;
81998;PMS5003;71598;46.516;-122.928;2023-11-21T13:04:09;146;138;
81998;PMS5003;71598;46.516;-122.928;2023-11-21T13:06:35;140;133;
81998;PMS5003;71598;46.516;-122.928;2023-11-21T13:09:00;139;136;
81998;PMS5003;71598;46.516;-122.928;2023-11-21T13:11:25;145;136;
81998;PMS5003;71598;46.516;-122.928;2023-11-21T13:13:51;143;134;
81998;PMS5003;71598;46.516;-122.928;2023-11-21T13:16:16;133;123;
81998;PMS5003;71598;46.516;-122.928;2023-11-21T13:18:41;134;124;
81998;PMS5003;71598;46.516;-122.928;2023-11-21T13:21:07;130;116;
81998;PMS5003;71598;46.516;-122.928;2023-11-21T13:23:34;136;124;
81998;PMS5003;71598;46.516;-122.928;2023-11-21T13:25:58;133;124;
81998;PMS5003;71598;46.516;-122.928;2023-11-21T13:28:23;119;114;
81998;PMS5003;71598;46.516;-122.928;2023-11-21T13:30:49;124;118;
81998;PMS5003;71598;46.516;-122.928;2023-11-21T13:33:14;126;123;
81998;PMS5003;71598;46.516;-122.928;2023-11-21T13:35:39;133;126;
81998;PMS5003;71598;46.516;-122.928;2023-11-21T13:38:05;125;120;
81998;PMS5003;71598;46.516;-122.928;2023-11-21T13:40:29;114;105;
81998;PMS5003;71598;46.516;-122.928;2023-11-21T13:42:55;111;106;
81998;PMS5003;71598;46.516;-122.928;2023-11-21T13:45:22;110;106;
81998;PMS5003;71598;46.516;-122.928;2023-11-21T13:47:46;106;102;
81998;PMS5003;71598;46.516;-122.928;2023-11-21T13:50:12;110;106;
81998;PMS5003;71598;46.516;-122.928;2023-11-21T13:52:37;102;99;
81998;PMS5003;71598;46.516;-122.928;2023-11-21T13:55:02;104;95;
81998;PMS5003;71598;46.516;-122.928;2023-11-21T13:57:29;104;100;
81998;PMS5003;71598;46.516;-122.928;2023-11-21T13:59:54;103;100;
81998;PMS5003;71598;46.516;-122.928;2023-11-21T14:02:19;101;98;
81998;PMS5003;71598;46.516;-122.928;2023-11-21T14:04:45;100;95;
81998;PMS5003;71598;46.516;-122.928;2023-11-21T14:07:10;96;93;
81998;PMS5003;71598;46.516;-122.928;2023-11-21T14:09:36;94;90;
81998;PMS5003;71598;46.516;-122.928;2023-11-21T14:12:01;89;86;
81998;PMS5003;71598;46.516;-122.928;2023-11-21T14:14:27;87;86;
81998;PMS5003;71598;46.516;-122.928;2023-11-21T14:16:52;87;82;
81998;PMS5003;71598;46.516;-122.928;2023-11-21T14:19:17;90;90;
81998;PMS5003;71598;46.516;-122.928;2023-11-21T14:21:45;86;82;
81998;PMS5003;71598;46.516;-122.928;2023-11-21T14:24:08;95;93;
81998;PMS5003;71598;46.516;-122.928;2023-11-21T14:26:33;83;79;
81998;PMS5003;71598;46.516;-122.928;2023-11-21T14:28:58;86;84;
81998;PMS5003;71598;46.516;-122.928;2023-11-21T14:31:24;83;80;
81998;PMS5003;71598;46.516;-122.928;2023-11-21T14:33:49;84;80;
81998;PMS5003;71598;46.516;-122.928;2023-11-21T14:36:15;81;79;
81998;PMS5003;71598;46.516;-122.928;2023-11-21T14:38:40;76;73;
81998;PMS5003;71598;46.516;-122.928;2023-11-21T14:41:06;86;82;
81998;PMS5003;71598;46.516;-122.928;2023-11-21T14:43:31;82;78;
81998;PMS5003;71598;46.516;-122.928;2023-11-21T14:45:57;77;73;
81998;PMS5003;71598;46.516;-122.928;2023-11-21T14:48:22;68;65;
81998;PMS5003;71598;46.516;-122.928;2023-11-21T14:50:47;71;68;
81998;PMS5003;71598;46.516;-122.928;2023-11-21T14:53:13;71;69;